createdAt,value
2022-12-25T00:01:42.654Z,101406.69
2022-12-25T00:05:44.138Z,101402.47
2022-12-25T00:09:45.620Z,101415.88
2022-12-25T00:13:47.980Z,101418.34
2022-12-25T00:17:49.428Z,101417.59
2022-12-25T00:21:50.883Z,101414.41
2022-12-25T00:25:53.051Z,101415.72
2022-12-25T00:29:54.486Z,101427.22
2022-12-25T00:33:55.921Z,101424.59
2022-12-25T00:37:57.406Z,101427.16
2022-12-25T00:42:17.302Z,101437.78
2022-12-25T00:46:18.838Z,101437.03
2022-12-25T00:50:20.409Z,101440.59
2022-12-25T00:54:21.917Z,101446.72
2022-12-25T00:58:24.845Z,101454.69
2022-12-25T01:02:26.654Z,101468.94
2022-12-25T01:06:28.810Z,101471.66
2022-12-25T01:10:30.345Z,101482.38
2022-12-25T01:14:31.771Z,101487.84
2022-12-25T01:18:33.189Z,101496.81
2022-12-25T01:22:34.758Z,101494.31
2022-12-25T01:26:36.200Z,101499.69
2022-12-25T01:30:37.661Z,101501.44
2022-12-25T01:34:39.237Z,101506.75
2022-12-25T01:38:40.786Z,101513.00
2022-12-25T01:42:43.249Z,101510.38
2022-12-25T01:46:45.384Z,101489.16
2022-12-25T01:50:52.671Z,101492.69
2022-12-25T01:55:00.085Z,101501.34
2022-12-25T01:59:02.803Z,101497.72
2022-12-25T02:03:04.867Z,101506.63
2022-12-25T02:07:09.929Z,101507.53
2022-12-25T02:11:31.341Z,101496.09
2022-12-25T02:15:48.126Z,101503.94
2022-12-25T02:20:11.288Z,101502.19
2022-12-25T02:24:34.178Z,101500.44
2022-12-25T02:28:52.097Z,101498.63
2022-12-25T02:33:22.811Z,101518.78
2022-12-25T02:37:35.774Z,101526.59
2022-12-25T02:41:41.467Z,101522.25
2022-12-25T02:46:06.884Z,101519.78
2022-12-25T02:50:27.865Z,101516.25
2022-12-25T02:54:52.794Z,101521.25
2022-12-25T02:59:12.909Z,101515.00
2022-12-25T03:03:34.106Z,101520.19
2022-12-25T03:07:41.968Z,101514.84
2022-12-25T03:11:47.400Z,101526.88
2022-12-25T03:16:08.354Z,101526.72
2022-12-25T03:20:29.846Z,101538.84
2022-12-25T03:24:50.285Z,101548.44
2022-12-25T03:28:51.807Z,101549.13
2022-12-25T03:33:18.020Z,101568.41
2022-12-25T03:37:42.857Z,101571.91
2022-12-25T03:42:08.340Z,101571.84
2022-12-25T03:46:33.927Z,101579.47
2022-12-25T03:51:04.013Z,101583.00
2022-12-25T03:55:29.828Z,101579.31
2022-12-25T03:59:50.043Z,101578.94
2022-12-25T04:04:09.949Z,101579.09
2022-12-25T04:08:30.164Z,101577.41
2022-12-25T04:12:49.811Z,101596.50
2022-12-25T04:17:09.695Z,101593.66
2022-12-25T04:21:29.929Z,101586.84
2022-12-25T04:25:50.147Z,101577.88
2022-12-25T04:30:10.403Z,101583.03
2022-12-25T04:34:30.476Z,101587.41
2022-12-25T04:38:32.232Z,101582.03
2022-12-25T04:42:33.854Z,101581.72
2022-12-25T04:46:35.407Z,101595.59
2022-12-25T04:50:36.851Z,101591.13
2022-12-25T04:54:38.699Z,101595.06
2022-12-25T04:58:41.045Z,101582.13
2022-12-25T05:02:42.694Z,101589.22
2022-12-25T05:06:44.311Z,101591.88
2022-12-25T05:10:45.857Z,101591.63
2022-12-25T05:14:47.299Z,101592.78
2022-12-25T05:18:49.778Z,101580.00
2022-12-25T05:22:51.177Z,101572.31
2022-12-25T05:26:52.631Z,101573.13
2022-12-25T05:30:57.140Z,101580.44
2022-12-25T05:35:00.254Z,101566.19
2022-12-25T05:39:01.698Z,101559.19
2022-12-25T05:43:03.276Z,101547.97
2022-12-25T05:47:04.952Z,101556.09
2022-12-25T05:51:08.007Z,101556.41
2022-12-25T05:55:09.441Z,101549.47
2022-12-25T05:59:10.859Z,101547.44
2022-12-25T06:03:12.603Z,101545.31
2022-12-25T06:07:14.239Z,101534.25
2022-12-25T06:11:15.748Z,101538.44
2022-12-25T06:15:17.238Z,101536.50
2022-12-25T06:19:19.737Z,101532.56
2022-12-25T06:23:21.320Z,101535.03
2022-12-25T06:27:22.781Z,101550.88
2022-12-25T06:31:24.667Z,101559.50
2022-12-25T06:35:26.709Z,101556.22
2022-12-25T06:39:28.212Z,101559.72
2022-12-25T06:43:29.736Z,101555.25
2022-12-25T06:47:31.174Z,101553.03
2022-12-25T06:51:32.858Z,101549.25
2022-12-25T06:55:34.352Z,101543.88
2022-12-25T06:59:35.825Z,101542.13
2022-12-25T07:03:37.327Z,101540.47
2022-12-25T07:07:41.109Z,101539.50
2022-12-25T07:11:42.597Z,101539.09
2022-12-25T07:15:44.050Z,101533.31
2022-12-25T07:19:48.709Z,101541.44
2022-12-25T07:23:50.433Z,101546.91
2022-12-25T07:27:51.922Z,101541.28
2022-12-25T07:31:59.023Z,101550.53
2022-12-25T07:36:01.271Z,101547.03
2022-12-25T07:40:03.398Z,101556.38
2022-12-25T07:44:04.949Z,101549.28
2022-12-25T07:48:09.482Z,101559.16
2022-12-25T07:52:38.035Z,101561.00
2022-12-25T07:56:42.934Z,101571.72
2022-12-25T08:00:47.030Z,101572.78
2022-12-25T08:04:48.533Z,101585.13
2022-12-25T08:08:49.946Z,101585.91
2022-12-25T08:12:51.996Z,101589.56
2022-12-25T08:16:53.514Z,101593.72
2022-12-25T08:20:55.657Z,101607.19
2022-12-25T08:24:57.130Z,101605.41
2022-12-25T08:28:58.806Z,101600.81
2022-12-25T08:33:00.237Z,101599.19
2022-12-25T08:37:01.721Z,101588.09
2022-12-25T08:41:03.996Z,101584.69
2022-12-25T08:45:05.876Z,101576.00
2022-12-25T08:49:07.346Z,101573.69
2022-12-25T08:53:08.859Z,101571.13
2022-12-25T08:57:10.317Z,101568.25
2022-12-25T09:01:13.145Z,101565.53
2022-12-25T09:05:14.807Z,101563.47
2022-12-25T09:09:16.306Z,101568.72
2022-12-25T09:13:19.841Z,101573.47
2022-12-25T09:17:21.331Z,101566.09
2022-12-25T09:21:22.751Z,101571.66
2022-12-25T09:25:24.234Z,101578.22
2022-12-25T09:29:25.664Z,101574.34
2022-12-25T09:33:30.140Z,101577.56
2022-12-25T09:37:31.638Z,101595.69
2022-12-25T09:41:53.826Z,101586.66
2022-12-25T09:45:57.195Z,101580.06
2022-12-25T09:50:13.886Z,101576.00
2022-12-25T09:54:24.276Z,101582.75
2022-12-25T09:58:26.812Z,101574.63
2022-12-25T10:02:43.067Z,101584.63
2022-12-25T10:07:09.539Z,101577.28
2022-12-25T10:11:47.417Z,101581.97
2022-12-25T10:16:11.822Z,101572.31
2022-12-25T10:20:51.483Z,101577.19
2022-12-25T10:24:57.278Z,101572.13
2022-12-25T10:29:06.532Z,101562.44
2022-12-25T10:33:16.653Z,101558.03
2022-12-25T10:37:18.761Z,101562.34
2022-12-25T10:41:42.705Z,101558.00
2022-12-25T10:45:48.588Z,101557.66
2022-12-25T10:49:50.086Z,101559.63
2022-12-25T10:53:51.522Z,101562.28
2022-12-25T10:57:54.222Z,101564.59
2022-12-25T11:02:03.980Z,101554.94
2022-12-25T11:06:07.252Z,101546.91
2022-12-25T11:10:31.642Z,101544.41
2022-12-25T11:14:33.264Z,101544.78
2022-12-25T11:18:48.287Z,101527.28
2022-12-25T11:22:50.261Z,101511.31
2022-12-25T11:26:55.036Z,101501.78
2022-12-25T11:31:03.318Z,101493.66
2022-12-25T11:35:12.433Z,101483.38
2022-12-25T11:39:22.122Z,101489.44
2022-12-25T11:43:32.243Z,101482.44
2022-12-25T11:47:58.718Z,101473.34
2022-12-25T11:52:01.231Z,101466.28
2022-12-25T11:56:11.363Z,101462.88
2022-12-25T12:00:15.892Z,101443.56
2022-12-25T12:04:25.887Z,101446.00
2022-12-25T12:08:33.359Z,101440.03
2022-12-25T12:12:48.857Z,101439.13
2022-12-25T12:16:50.901Z,101445.22
2022-12-25T12:21:05.709Z,101447.03
2022-12-25T12:25:07.813Z,101452.19
2022-12-25T12:29:28.649Z,101446.13
2022-12-25T12:33:41.283Z,101435.66
2022-12-25T12:37:46.150Z,101427.59
2022-12-25T12:41:49.372Z,101425.09
2022-12-25T12:45:57.969Z,101420.56
2022-12-25T12:50:01.190Z,101427.50
2022-12-25T12:54:18.135Z,101430.84
2022-12-25T12:58:34.342Z,101423.69
2022-12-25T13:03:05.884Z,101415.03
2022-12-25T13:07:19.826Z,101420.13
2022-12-25T13:11:24.634Z,101419.22
2022-12-25T13:15:30.151Z,101416.78
2022-12-25T13:19:31.596Z,101416.78
2022-12-25T13:23:37.781Z,101412.66
2022-12-25T13:27:39.238Z,101420.31
2022-12-25T13:31:41.200Z,101411.59
2022-12-25T13:35:44.184Z,101409.56
2022-12-25T13:39:52.512Z,101401.00
2022-12-25T13:43:58.309Z,101384.22
2022-12-25T13:48:14.213Z,101378.09
2022-12-25T13:52:20.227Z,101371.03
2022-12-25T13:56:21.710Z,101382.72
2022-12-25T14:00:28.532Z,101359.81
2022-12-25T14:04:29.994Z,101349.38
2022-12-25T14:08:35.064Z,101343.06
2022-12-25T14:12:36.663Z,101344.03
2022-12-25T14:16:43.385Z,101350.03
2022-12-25T14:21:07.136Z,101352.06
2022-12-25T14:25:15.660Z,101344.84
2022-12-25T14:29:22.484Z,101329.91
2022-12-25T14:33:28.724Z,101322.09
2022-12-25T14:37:32.638Z,101322.06
2022-12-25T14:41:41.668Z,101320.34
2022-12-25T14:45:43.252Z,101316.72
2022-12-25T14:49:44.991Z,101323.66
2022-12-25T14:53:50.584Z,101323.75
2022-12-25T14:58:04.781Z,101327.19
2022-12-25T15:02:19.055Z,101332.56
2022-12-25T15:06:24.663Z,101332.47
2022-12-25T15:10:59.101Z,101328.06
2022-12-25T15:14:48.106Z,101331.59
2022-12-25T15:18:50.135Z,101314.00
2022-12-25T15:23:18.252Z,101320.25
2022-12-25T15:27:17.089Z,101310.41
2022-12-25T15:31:22.837Z,101294.56
2022-12-25T15:35:24.798Z,101292.72
2022-12-25T15:39:26.356Z,101279.41
2022-12-25T15:43:43.112Z,101276.78
2022-12-25T15:47:44.742Z,101275.72
2022-12-25T15:51:47.172Z,101267.22
2022-12-25T15:55:49.153Z,101261.81
2022-12-25T15:59:50.573Z,101258.44
2022-12-25T16:03:52.099Z,101241.66
2022-12-25T16:07:53.684Z,101220.59
2022-12-25T16:11:55.131Z,101226.69
2022-12-25T16:15:56.596Z,101218.75
2022-12-25T16:19:58.093Z,101221.28
2022-12-25T16:23:59.594Z,101226.56
2022-12-25T16:28:03.497Z,101230.97
2022-12-25T16:32:05.045Z,101233.75
2022-12-25T16:36:06.886Z,101235.44
2022-12-25T16:40:12.677Z,101230.19
2022-12-25T16:44:15.844Z,101225.78
2022-12-25T16:48:17.420Z,101223.19
2022-12-25T16:52:18.856Z,101219.59
2022-12-25T16:56:20.668Z,101224.97
2022-12-25T17:00:22.424Z,101214.41
2022-12-25T17:04:23.963Z,101215.38
2022-12-25T17:08:25.436Z,101202.16
2022-12-25T17:12:26.869Z,101196.78
2022-12-25T17:16:31.132Z,101189.81
2022-12-25T17:20:32.800Z,101184.44
2022-12-25T17:24:36.253Z,101178.34
2022-12-25T17:28:37.754Z,101181.84
2022-12-25T17:32:39.165Z,101163.38
2022-12-25T17:36:40.640Z,101153.72
2022-12-25T17:40:42.409Z,101153.72
2022-12-25T17:44:44.319Z,101141.38
2022-12-25T17:48:46.267Z,101136.09
2022-12-25T17:52:47.802Z,101130.75
2022-12-25T17:56:49.376Z,101119.34
2022-12-25T18:00:50.994Z,101115.00
2022-12-25T18:04:52.474Z,101107.06
2022-12-25T18:08:55.354Z,101104.38
2022-12-25T18:12:56.788Z,101099.06
2022-12-25T18:16:58.229Z,101090.16
2022-12-25T18:20:59.768Z,101084.03
2022-12-25T18:25:01.181Z,101086.72
2022-12-25T18:29:03.675Z,101077.91
2022-12-25T18:33:05.115Z,101073.50
2022-12-25T18:37:06.563Z,101070.84
2022-12-25T18:41:09.720Z,101060.31
2022-12-25T18:45:14.812Z,101058.56
2022-12-25T18:49:16.309Z,101040.94
2022-12-25T18:53:17.794Z,101033.84
2022-12-25T18:57:19.430Z,101026.81
2022-12-25T19:01:23.261Z,101012.69
2022-12-25T19:05:25.121Z,101009.19
2022-12-25T19:09:26.729Z,101008.31
2022-12-25T19:13:28.150Z,101006.50
2022-12-25T19:17:31.861Z,100998.59
2022-12-25T19:21:37.846Z,100986.22
2022-12-25T19:25:40.488Z,100980.06
2022-12-25T19:29:41.924Z,100973.88
2022-12-25T19:33:43.425Z,100975.66
2022-12-25T19:37:44.857Z,100965.94
2022-12-25T19:41:46.495Z,100960.69
2022-12-25T19:45:48.266Z,100941.28
2022-12-25T19:49:53.175Z,100940.38
2022-12-25T19:53:56.254Z,100929.81
2022-12-25T19:57:59.090Z,100926.22
2022-12-25T20:02:00.945Z,100921.84
2022-12-25T20:06:04.290Z,100911.28
2022-12-25T20:10:07.104Z,100908.63
2022-12-25T20:14:10.475Z,100905.06
2022-12-25T20:18:11.983Z,100901.56
2022-12-25T20:22:13.498Z,100894.50
2022-12-25T20:26:17.274Z,100877.81
2022-12-25T20:30:18.756Z,100875.94
2022-12-25T20:34:20.192Z,100878.53
2022-12-25T20:38:21.630Z,100867.16
2022-12-25T20:42:23.257Z,100875.94
2022-12-25T20:46:25.773Z,100856.63
2022-12-25T20:50:27.435Z,100840.81
2022-12-25T20:54:28.866Z,100832.00
2022-12-25T20:58:30.487Z,100826.72
2022-12-25T21:02:36.564Z,100823.16
2022-12-25T21:06:38.242Z,100824.97
2022-12-25T21:10:39.660Z,100816.09
2022-12-25T21:14:41.105Z,100823.16
2022-12-25T21:18:42.686Z,100817.84
2022-12-25T21:22:44.168Z,100813.50
2022-12-25T21:26:48.207Z,100808.19
2022-12-25T21:30:51.117Z,100804.69
2022-12-25T21:34:52.576Z,100795.81
2022-12-25T21:38:55.414Z,100788.78
2022-12-25T21:42:56.905Z,100788.78
2022-12-25T21:46:58.428Z,100769.38
2022-12-25T21:51:27.251Z,100770.28
2022-12-25T21:55:28.795Z,100770.31
2022-12-25T21:59:30.284Z,100777.28
2022-12-25T22:03:32.038Z,100764.97
2022-12-25T22:07:33.515Z,100769.34
2022-12-25T22:11:53.776Z,100768.47
2022-12-25T22:16:21.069Z,100783.47
2022-12-25T22:20:24.033Z,100775.53
2022-12-25T22:24:25.691Z,100772.88
2022-12-25T22:28:27.747Z,100761.44
2022-12-25T22:32:29.360Z,100754.38
2022-12-25T22:36:31.081Z,100749.09
2022-12-25T22:40:33.045Z,100747.31
2022-12-25T22:44:34.704Z,100741.09
2022-12-25T22:48:36.232Z,100741.13
2022-12-25T22:52:38.498Z,100732.34
2022-12-25T22:56:40.974Z,100714.72
2022-12-25T23:00:46.394Z,100700.59
2022-12-25T23:04:48.343Z,100683.81
2022-12-25T23:08:49.846Z,100664.56
2022-12-25T23:13:09.941Z,100662.56
2022-12-25T23:17:31.803Z,100658.16
2022-12-25T23:21:52.039Z,100656.53
2022-12-25T23:26:08.528Z,100651.97
2022-12-25T23:30:12.145Z,100660.72
2022-12-25T23:34:13.711Z,100666.88
2022-12-25T23:38:15.250Z,100667.88
2022-12-25T23:42:17.113Z,100660.03
2022-12-25T23:46:19.100Z,100659.84
2022-12-25T23:50:20.672Z,100665.22
2022-12-25T23:54:25.310Z,100666.06
2022-12-25T23:58:27.962Z,100655.44
